Time;durP1;ratioP1;P1;durP2;ratioP2;P2;SDS_P1;SDS_P2;PMS_P1;PMS_P2;Temp;Humidity;BMP_temperature;BMP_pressure;BME280_temperature;BME280_humidity;BME280_pressure;Samples;Min_cycle;Max_cycle;Signal;HPM_P1;HPM_P2
2022/12/27 00:00:20;;;;;;;;;;;;;;;20.42;53.41;101223.88;5049779;28;5531;-68
2022/12/27 00:02:46;;;;;;;;;;;;;;;20.43;53.19;101221.75;5040197;28;4275;-67
2022/12/27 00:05:14;;;;;;;;;;;;;;;20.41;53.35;101225.28;5039265;28;4155;-68
2022/12/27 00:07:41;;;;;;;;;;;;;;;20.40;53.33;101241.03;5046565;28;4343;-68
2022/12/27 00:10:07;;;;;;;;;;;;;;;20.39;53.29;101236.66;5040262;28;5264;-67
2022/12/27 00:12:34;;;;;;;;;;;;;;;20.39;53.22;101242.41;5049478;28;4195;-67
2022/12/27 00:15:00;;;;;;;;;;;;;;;20.40;53.10;101243.16;5048557;28;4209;-68
2022/12/27 00:17:28;;;;;;;;;;;;;;;20.39;53.04;101256.06;5040840;28;4275;-67
2022/12/27 00:19:54;;;;;;;;;;;;;;;20.36;53.19;101249.44;5042513;28;5511;-68
2022/12/27 00:22:20;;;;;;;;;;;;;;;20.36;53.05;101252.31;5048376;28;4011;-67
2022/12/27 00:24:47;;;;;;;;;;;;;;;20.36;53.03;101260.19;5031908;28;3965;-66
2022/12/27 00:27:13;;;;;;;;;;;;;;;20.35;53.20;101264.47;5034065;28;5124;-67
2022/12/27 00:29:39;;;;;;;;;;;;;;;20.34;53.05;101262.97;5033056;28;4340;-67
2022/12/27 00:32:06;;;;;;;;;;;;;;;20.33;53.18;101262.22;5031644;28;4155;-67
2022/12/27 00:34:32;;;;;;;;;;;;;;;20.33;53.13;101267.25;5038977;28;4205;-67
2022/12/27 00:36:58;;;;;;;;;;;;;;;20.31;53.20;101256.38;5029320;28;4238;-67
2022/12/27 00:39:25;;;;;;;;;;;;;;;20.30;53.03;101266.38;5034445;28;4163;-66
2022/12/27 00:41:51;;;;;;;;;;;;;;;20.29;53.14;101262.00;5034227;28;4234;-68
2022/12/27 00:44:18;;;;;;;;;;;;;;;20.27;53.13;101265.53;5048704;28;4975;-66
2022/12/27 00:46:44;;;;;;;;;;;;;;;20.33;53.14;101267.97;5036682;28;4196;-66
2022/12/27 00:49:10;;;;;;;;;;;;;;;20.33;53.30;101273.72;5041520;28;4158;-67
2022/12/27 00:51:37;;;;;;;;;;;;;;;20.34;53.45;101275.25;5040877;28;5214;-67
2022/12/27 00:54:03;;;;;;;;;;;;;;;20.34;53.42;101275.25;5038401;28;4234;-67
2022/12/27 00:56:31;;;;;;;;;;;;;;;20.35;53.51;101276.72;5028886;28;4147;-68
2022/12/27 00:58:58;;;;;;;;;;;;;;;20.34;53.40;101281.00;5038700;28;5235;-68
2022/12/27 01:01:25;;;;;;;;;;;;;;;20.35;53.28;101288.22;5033330;28;4058;-67
2022/12/27 01:03:51;;;;;;;;;;;;;;;20.34;53.44;101288.84;5038817;28;4563;-67
2022/12/27 01:06:21;;;;;;;;;;;;;;;20.32;53.46;101295.25;5034094;28;5285;-67
2022/12/27 01:08:47;;;;;;;;;;;;;;;20.29;53.48;101305.16;5039350;28;4167;-67
2022/12/27 01:11:14;;;;;;;;;;;;;;;20.27;53.50;101305.03;5028825;28;4051;-67
2022/12/27 01:13:40;;;;;;;;;;;;;;;20.25;53.55;101310.69;5031450;28;4102;-67
2022/12/27 01:16:10;;;;;;;;;;;;;;;20.22;53.57;101318.44;5037446;28;4074;-67
2022/12/27 01:18:36;;;;;;;;;;;;;;;20.22;53.54;101314.84;5046555;28;4136;-67
2022/12/27 01:21:04;;;;;;;;;;;;;;;20.21;53.57;101324.84;5043658;28;5225;-67
2022/12/27 01:23:30;;;;;;;;;;;;;;;20.23;53.27;101322.84;5044679;28;3901;-67
2022/12/27 01:26:00;;;;;;;;;;;;;;;20.23;53.36;101325.69;5032818;28;4326;-66
2022/12/27 01:28:26;;;;;;;;;;;;;;;20.25;53.18;101330.84;5042766;28;4003;-67
2022/12/27 01:30:53;;;;;;;;;;;;;;;20.27;53.02;101328.03;5040382;28;4266;-67
2022/12/27 01:33:19;;;;;;;;;;;;;;;20.27;53.19;101328.81;5044979;28;5054;-67
2022/12/27 01:35:45;;;;;;;;;;;;;;;20.28;53.17;101324.53;5037039;28;4125;-67
2022/12/27 01:38:12;;;;;;;;;;;;;;;20.29;53.16;101328.91;5044315;28;4139;-68
2022/12/27 01:40:38;;;;;;;;;;;;;;;20.31;53.20;101334.00;5042343;28;5391;-67
2022/12/27 01:43:04;;;;;;;;;;;;;;;20.30;53.29;101332.53;5042817;28;4149;-67
2022/12/27 01:45:31;;;;;;;;;;;;;;;20.31;53.22;101334.00;5042208;28;4207;-67
2022/12/27 01:48:11;;;;;;;;;;;;;;;20.31;53.08;101336.88;5043726;28;5335;-67
2022/12/27 01:50:39;;;;;;;;;;;;;;;20.29;53.13;101339.66;5037156;28;4134;-67
2022/12/27 01:53:16;;;;;;;;;;;;;;;20.28;53.23;101346.81;5046610;28;4114;-66
2022/12/27 01:55:52;;;;;;;;;;;;;;;20.29;53.29;101336.78;5048534;28;3985;-66
2022/12/27 01:58:22;;;;;;;;;;;;;;;20.28;53.26;101349.69;5051375;28;5265;-67
2022/12/27 02:00:48;;;;;;;;;;;;;;;20.28;53.11;101346.81;5048626;28;4046;-68
2022/12/27 02:03:17;;;;;;;;;;;;;;;20.27;53.18;101346.06;5050397;28;5453;-67
2022/12/27 02:05:44;;;;;;;;;;;;;;;20.28;52.96;101343.94;5049935;28;4138;-67
2022/12/27 02:08:15;;;;;;;;;;;;;;;20.27;53.02;101348.94;5046642;28;4171;-67
2022/12/27 02:10:41;;;;;;;;;;;;;;;20.29;52.83;101348.28;5055930;28;4107;-67
2022/12/27 02:13:07;;;;;;;;;;;;;;;20.28;52.99;101359.03;5042178;28;4202;-67
2022/12/27 02:15:34;;;;;;;;;;;;;;;20.28;52.83;101353.28;5047835;28;4219;-67
2022/12/27 02:18:01;;;;;;;;;;;;;;;20.30;52.70;101356.28;5049044;28;4171;-67
2022/12/27 02:20:31;;;;;;;;;;;;;;;20.31;52.89;101357.03;5055084;28;4254;-67
2022/12/27 02:26:10;;;;;;;;;;;;;;;20.32;52.93;101364.28;5055103;28;4005;-67
2022/12/27 02:28:53;;;;;;;;;;;;;;;20.29;52.95;101369.19;5050490;28;4161;-67
2022/12/27 02:31:30;;;;;;;;;;;;;;;20.29;52.95;101365.53;5051882;28;4147;-67
2022/12/27 02:33:56;;;;;;;;;;;;;;;20.30;52.98;101378.56;5050357;28;4025;-67
2022/12/27 02:36:23;;;;;;;;;;;;;;;20.30;52.93;101372.81;5050501;28;4172;-67
2022/12/27 02:55:04;;;;;;;;;;;;;;;20.28;52.70;101384.19;5030747;28;4241;-67
2022/12/27 02:57:41;;;;;;;;;;;;;;;20.27;52.75;101386.31;5039920;28;5303;-67
2022/12/27 03:08:52;;;;;;;;;;;;;;;20.30;52.88;101395.81;5040837;28;4272;-67
2022/12/27 03:16:55;;;;;;;;;;;;;;;20.29;52.68;101406.56;5038680;28;4293;-67
2022/12/27 03:25:26;;;;;;;;;;;;;;;20.27;52.72;101409.34;5043265;28;4171;-67
2022/12/27 03:27:44;;;;;;;;;;;;;;;20.26;52.97;101418.59;5048929;28;5278;-67
2022/12/27 03:33:14;;;;;;;;;;;;;;;20.25;52.64;101422.84;5035024;28;4171;-68
2022/12/27 03:35:41;;;;;;;;;;;;;;;20.25;52.58;101429.34;5044993;28;4048;-68
2022/12/27 03:38:07;;;;;;;;;;;;;;;20.25;52.63;101428.59;5047818;28;4073;-67
2022/12/27 03:40:33;;;;;;;;;;;;;;;20.25;52.69;101434.34;5038760;28;4153;-68
2022/12/27 03:43:10;;;;;;;;;;;;;;;20.24;52.43;101427.09;5046892;28;5151;-67
2022/12/27 03:48:29;;;;;;;;;;;;;;;20.25;52.32;101440.84;5045014;28;5084;-68
2022/12/27 03:50:56;;;;;;;;;;;;;;;20.27;52.47;101431.56;5044679;28;5176;-69
2022/12/27 03:53:24;;;;;;;;;;;;;;;20.28;52.49;101433.09;5049898;28;4167;-67
2022/12/27 03:55:50;;;;;;;;;;;;;;;20.28;52.41;101435.97;5050434;28;5149;-67
2022/12/27 03:58:17;;;;;;;;;;;;;;;20.29;52.64;101437.44;5049360;28;4106;-68
2022/12/27 04:00:43;;;;;;;;;;;;;;;20.30;52.53;101447.56;5051605;28;3953;-67
2022/12/27 04:03:09;;;;;;;;;;;;;;;20.30;52.51;101442.56;5049078;28;4137;-67
2022/12/27 04:05:36;;;;;;;;;;;;;;;20.33;52.55;101445.56;5053136;28;4049;-67
2022/12/27 04:35:33;;;;;;;;;;;;;;;20.33;52.29;101429.03;5054360;28;4003;-67
2022/12/27 04:37:59;;;;;;;;;;;;;;;20.33;52.29;101431.91;5055412;28;4046;-67
2022/12/27 04:54:57;;;;;;;;;;;;;;;20.32;52.29;101444.81;5056194;28;4241;-67
2022/12/27 04:57:04;;;;;;;;;;;;;;;20.33;52.17;101446.31;5051974;28;4353;-66
2022/12/27 05:02:15;;;;;;;;;;;;;;;20.34;52.21;101453.56;5034807;28;3995;-66
2022/12/27 05:04:42;;;;;;;;;;;;;;;20.34;52.19;101447.81;5039356;28;4179;-67
2022/12/27 05:15:24;;;;;;;;;;;;;;;20.38;52.19;101448.00;5037555;28;5358;-67
2022/12/27 05:17:50;;;;;;;;;;;;;;;20.39;52.04;101446.66;5046760;28;4279;-66
2022/12/27 05:20:16;;;;;;;;;;;;;;;20.39;52.13;101443.03;5046407;28;4152;-67
2022/12/27 05:25:34;;;;;;;;;;;;;;;20.38;52.11;101453.78;5041100;28;4933;-66
2022/12/27 05:28:00;;;;;;;;;;;;;;;20.38;52.15;101462.41;5033261;28;4085;-67
2022/12/27 05:30:26;;;;;;;;;;;;;;;20.36;51.96;101462.28;5040292;28;4040;-67
2022/12/27 05:32:53;;;;;;;;;;;;;;;20.36;52.15;101462.28;5041627;28;4221;-67
2022/12/27 05:35:19;;;;;;;;;;;;;;;20.36;52.08;101467.28;5038003;28;4148;-67
2022/12/27 05:37:46;;;;;;;;;;;;;;;20.36;51.93;101462.28;5046090;28;4032;-67
2022/12/27 05:40:22;;;;;;;;;;;;;;;20.37;51.92;101463.78;5046310;28;4205;-66
2022/12/27 05:42:49;;;;;;;;;;;;;;;20.39;52.09;101468.91;5034622;28;4158;-66
2022/12/27 05:45:15;;;;;;;;;;;;;;;20.38;52.03;101471.03;5044352;28;4098;-66
2022/12/27 05:47:41;;;;;;;;;;;;;;;20.38;51.99;101473.16;5036850;28;4036;-66
2022/12/27 05:50:08;;;;;;;;;;;;;;;20.39;52.21;101478.28;5042665;28;4145;-66
2022/12/27 05:52:34;;;;;;;;;;;;;;;20.37;51.97;101481.06;5047909;28;4174;-67
2022/12/27 05:55:06;;;;;;;;;;;;;;;20.36;51.95;101479.53;5044036;28;4196;-66
2022/12/27 05:57:32;;;;;;;;;;;;;;;20.37;51.91;101478.19;5044389;28;6288;-67
2022/12/27 05:59:59;;;;;;;;;;;;;;;20.36;51.97;101481.69;5046163;28;4548;-66
2022/12/27 06:02:25;;;;;;;;;;;;;;;20.36;51.77;101485.28;5044354;28;4068;-66
2022/12/27 06:04:52;;;;;;;;;;;;;;;20.37;51.86;101483.94;5045403;28;4207;-67
2022/12/27 06:07:18;;;;;;;;;;;;;;;20.37;51.89;101486.81;5049719;28;3994;-66
2022/12/27 06:09:44;;;;;;;;;;;;;;;20.38;51.80;101494.03;5047423;28;4143;-67
2022/12/27 06:12:11;;;;;;;;;;;;;;;20.39;51.82;101489.78;5042534;28;3972;-66
2022/12/27 06:14:40;;;;;;;;;;;;;;;20.40;51.75;101491.28;5048441;28;5205;-66
2022/12/27 06:17:06;;;;;;;;;;;;;;;20.40;51.82;101491.28;5047292;28;4307;-67
2022/12/27 06:19:32;;;;;;;;;;;;;;;20.41;51.81;101489.91;5042354;28;4130;-66
2022/12/27 06:21:59;;;;;;;;;;;;;;;20.42;51.80;101491.41;5046929;28;4115;-67
2022/12/27 06:24:25;;;;;;;;;;;;;;;20.42;51.81;101500.03;5046492;28;5134;-66
2022/12/27 06:26:51;;;;;;;;;;;;;;;20.41;51.75;101503.53;5043639;28;3997;-66
2022/12/27 06:29:18;;;;;;;;;;;;;;;20.40;51.59;101497.03;5038364;28;4155;-67
2022/12/27 06:31:44;;;;;;;;;;;;;;;20.40;51.76;101499.91;5044669;28;4175;-66
2022/12/27 06:34:11;;;;;;;;;;;;;;;20.40;51.82;101502.78;5040841;28;4149;-66
2022/12/27 06:36:37;;;;;;;;;;;;;;;20.39;51.72;101507.06;5041542;28;4004;-67
2022/12/27 06:39:03;;;;;;;;;;;;;;;20.39;51.74;101507.06;5051718;28;6124;-66
2022/12/27 06:41:30;;;;;;;;;;;;;;;20.40;51.67;101508.53;5044300;28;4174;-67
2022/12/27 06:43:56;;;;;;;;;;;;;;;20.38;51.72;101517.06;5043908;28;5406;-68
2022/12/27 06:46:25;;;;;;;;;;;;;;;20.40;51.71;101520.03;5037196;28;4149;-66
2022/12/27 06:48:52;;;;;;;;;;;;;;;20.41;51.52;101510.06;5048738;28;4255;-66
2022/12/27 06:51:18;;;;;;;;;;;;;;;20.41;51.52;101515.81;5049007;28;4297;-66
2022/12/27 06:53:45;;;;;;;;;;;;;;;20.41;51.66;101515.81;5046015;28;4158;-66
2022/12/27 06:56:12;;;;;;;;;;;;;;;20.41;51.60;101520.78;5043131;28;4434;-66
2022/12/27 06:58:39;;;;;;;;;;;;;;;20.40;51.66;101525.81;5048125;28;4512;-66
2022/12/27 07:01:06;;;;;;;;;;;;;;;20.40;51.64;101522.94;5043826;28;4276;-66
2022/12/27 07:03:32;;;;;;;;;;;;;;;20.40;51.66;101531.56;5049461;28;5270;-66
2022/12/27 07:06:02;;;;;;;;;;;;;;;20.39;51.63;101535.81;5049433;28;5222;-66
2022/12/27 07:08:28;;;;;;;;;;;;;;;20.40;51.50;101531.56;5036829;28;4141;-67
2022/12/27 07:11:02;;;;;;;;;;;;;;;20.41;51.48;101533.06;5038011;28;5171;-66
2022/12/27 07:13:28;;;;;;;;;;;;;;;20.41;51.49;101527.31;5042717;28;5139;-67
2022/12/27 07:15:54;;;;;;;;;;;;;;;20.41;51.46;101543.81;5041726;28;5044;-66
2022/12/27 07:18:21;;;;;;;;;;;;;;;20.42;51.43;101540.31;5045907;28;5177;-66
2022/12/27 07:20:47;;;;;;;;;;;;;;;20.41;51.54;101543.81;5044559;28;5165;-66
2022/12/27 07:23:14;;;;;;;;;;;;;;;20.44;51.39;101551.19;5046589;28;4170;-66
2022/12/27 07:25:44;;;;;;;;;;;;;;;20.42;51.53;101551.81;5039097;28;4366;-63
2022/12/27 07:28:11;;;;;;;;;;;;;;;20.28;51.45;101548.13;5033739;28;4099;-66
2022/12/27 07:30:40;;;;;;;;;;;;;;;20.22;50.68;101547.75;5043424;28;4190;-66
2022/12/27 07:33:07;;;;;;;;;;;;;;;20.29;50.99;101561.13;5036970;28;3981;-67
2022/12/27 07:35:33;;;;;;;;;;;;;;;20.33;50.30;101567.09;5042556;28;4170;-67
2022/12/27 07:38:00;;;;;;;;;;;;;;;20.34;50.29;101574.38;5042904;28;4376;-66
2022/12/27 07:40:26;;;;;;;;;;;;;;;20.37;50.31;101573.09;5047733;28;4108;-67
2022/12/27 07:42:52;;;;;;;;;;;;;;;20.36;50.44;101573.72;5040114;28;5236;-67
2022/12/27 07:45:19;;;;;;;;;;;;;;;20.39;50.61;101581.84;5047461;28;3952;-67
2022/12/27 07:47:45;;;;;;;;;;;;;;;20.39;50.77;101581.84;5045905;28;4256;-67
2022/12/27 07:50:11;;;;;;;;;;;;;;;20.40;50.90;101583.34;5043821;28;4199;-67
2022/12/27 07:52:38;;;;;;;;;;;;;;;20.39;50.96;101581.84;5050325;28;4543;-66
2022/12/27 07:55:04;;;;;;;;;;;;;;;20.40;50.89;101588.34;5044083;28;4186;-67
2022/12/27 07:57:30;;;;;;;;;;;;;;;20.40;50.87;101585.47;5047681;28;4234;-67
2022/12/27 07:59:57;;;;;;;;;;;;;;;20.39;50.83;101590.47;5041594;28;4169;-67
2022/12/27 08:02:23;;;;;;;;;;;;;;;20.40;50.83;101594.09;5036851;28;6353;-66
2022/12/27 08:04:50;;;;;;;;;;;;;;;20.39;50.73;101604.88;5038571;28;4079;-67
2022/12/27 08:07:17;;;;;;;;;;;;;;;20.39;50.70;101589.75;5035519;28;3971;-66
2022/12/27 08:09:44;;;;;;;;;;;;;;;20.38;50.76;101591.84;5044443;28;3955;-67
2022/12/27 08:12:12;;;;;;;;;;;;;;;20.38;50.82;101591.09;5035508;28;4104;-66
2022/12/27 08:14:38;;;;;;;;;;;;;;;20.39;50.81;101586.88;5047900;28;5487;-66
2022/12/27 08:17:07;;;;;;;;;;;;;;;20.39;50.79;101592.63;5043968;28;4125;-68
2022/12/27 08:19:33;;;;;;;;;;;;;;;20.39;50.88;101593.34;5041000;28;4185;-66
2022/12/27 08:22:00;;;;;;;;;;;;;;;20.42;50.84;101597.84;5048575;28;4095;-67
2022/12/27 08:24:26;;;;;;;;;;;;;;;20.45;50.75;101601.56;5044498;28;4187;-68
2022/12/27 08:26:52;;;;;;;;;;;;;;;20.46;50.67;101614.59;5040759;28;4568;-67
2022/12/27 08:29:19;;;;;;;;;;;;;;;20.45;50.87;101596.56;5048534;28;4170;-67
2022/12/27 08:31:45;;;;;;;;;;;;;;;20.44;51.01;101597.22;5041282;28;5453;-67
2022/12/27 08:34:11;;;;;;;;;;;;;;;20.43;50.96;101610.84;5047677;28;4790;-66
2022/12/27 08:36:38;;;;;;;;;;;;;;;20.43;51.10;101616.59;5040810;28;4225;-67
2022/12/27 08:39:20;;;;;;;;;;;;;;;20.42;51.09;101609.34;5043326;28;5198;-66
2022/12/27 08:41:47;;;;;;;;;;;;;;;20.42;50.89;101615.09;5048480;28;4210;-67
2022/12/27 08:44:13;;;;;;;;;;;;;;;20.43;51.36;101621.59;5044627;28;4078;-66
2022/12/27 08:46:39;;;;;;;;;;;;;;;20.44;51.11;101628.88;5045125;28;4154;-66
2022/12/27 08:49:06;;;;;;;;;;;;;;;20.44;51.30;101626.72;5050868;28;4073;-67
2022/12/27 08:51:32;;;;;;;;;;;;;;;20.45;51.25;101613.81;5046889;28;6529;-66
2022/12/27 08:54:06;;;;;;;;;;;;;;;20.45;51.38;101628.22;5047690;28;4114;-66
2022/12/27 08:56:32;;;;;;;;;;;;;;;20.45;51.35;101630.34;5048449;28;4050;-66
2022/12/27 08:58:59;;;;;;;;;;;;;;;20.44;51.27;101629.59;5051461;28;5509;-66
2022/12/27 09:01:25;;;;;;;;;;;;;;;20.43;51.56;101631.00;5044597;28;4124;-66
2022/12/27 09:03:52;;;;;;;;;;;;;;;20.42;51.41;101626.59;5047367;28;4168;-66
2022/12/27 09:06:19;;;;;;;;;;;;;;;20.15;50.15;101629.31;5045781;28;6586;-65
2022/12/27 09:08:46;;;;;;;;;;;;;;;18.19;40.16;101632.75;5046726;28;5199;-66
2022/12/27 09:11:13;;;;;;;;;;;;;;;18.25;40.62;101641.75;5044344;28;4286;-62
2022/12/27 09:13:40;;;;;;;;;;;;;;;17.32;38.09;101636.75;5043385;28;4121;-61
2022/12/27 09:16:07;;;;;;;;;;;;;;;16.68;38.17;101657.16;5048776;28;4329;-62
2022/12/27 09:18:33;;;;;;;;;;;;;;;16.63;37.81;101650.38;5050494;28;4386;-66
2022/12/27 09:21:03;;;;;;;;;;;;;;;17.65;37.65;101644.78;5048839;28;4247;-66
2022/12/27 09:23:30;;;;;;;;;;;;;;;17.97;37.64;101641.31;5045607;28;4129;-66
2022/12/27 09:25:56;;;;;;;;;;;;;;;18.56;37.37;101635.19;5053159;28;4168;-69
2022/12/27 09:28:22;;;;;;;;;;;;;;;18.94;38.41;101633.34;5038965;28;4048;-65
2022/12/27 09:30:49;;;;;;;;;;;;;;;19.16;38.81;101631.91;5052602;28;3971;-65
2022/12/27 09:33:15;;;;;;;;;;;;;;;19.33;39.09;101648.03;5037319;28;5245;-64
2022/12/27 09:35:41;;;;;;;;;;;;;;;19.46;39.67;101647.44;5055360;28;4367;-66
2022/12/27 09:38:08;;;;;;;;;;;;;;;19.56;40.13;101635.84;5050547;28;4428;-65
2022/12/27 09:40:34;;;;;;;;;;;;;;;19.63;40.97;101631.97;5041112;28;5510;-65
2022/12/27 09:43:07;;;;;;;;;;;;;;;19.70;41.46;101640.97;5045022;28;4150;-66
2022/12/27 09:45:49;;;;;;;;;;;;;;;19.77;41.82;101651.47;5037607;28;4079;-66
2022/12/27 09:48:20;;;;;;;;;;;;;;;19.83;42.01;101654.72;5042954;28;4286;-65
2022/12/27 09:50:54;;;;;;;;;;;;;;;19.85;42.75;101658.47;5054367;28;4001;-65
2022/12/27 09:53:21;;;;;;;;;;;;;;;19.96;42.72;101659.09;5039362;28;4142;-66
2022/12/27 09:55:48;;;;;;;;;;;;;;;19.97;43.30;101655.56;5042135;28;4040;-66
2022/12/27 09:58:21;;;;;;;;;;;;;;;19.99;43.69;101655.69;5048457;28;4007;-66
2022/12/27 10:00:50;;;;;;;;;;;;;;;20.00;43.97;101657.22;5047818;28;4062;-65
2022/12/27 10:03:18;;;;;;;;;;;;;;;20.03;44.54;101660.97;5034700;28;5178;-65
2022/12/27 10:05:45;;;;;;;;;;;;;;;20.05;44.65;101653.19;5041189;28;4238;-65
2022/12/27 10:08:20;;;;;;;;;;;;;;;20.05;44.93;101649.59;5041723;28;4169;-65
2022/12/27 10:11:07;;;;;;;;;;;;;;;20.06;45.50;101653.94;5044210;28;4258;-65
2022/12/27 10:13:37;;;;;;;;;;;;;;;20.06;45.36;101663.31;5046320;28;4246;-65
2022/12/27 10:16:03;;;;;;;;;;;;;;;20.06;45.53;101666.19;5039716;28;5373;-66
2022/12/27 10:18:37;;;;;;;;;;;;;;;20.08;45.65;101666.31;5052424;28;4149;-66
2022/12/27 10:21:21;;;;;;;;;;;;;;;20.11;45.73;101666.44;5081401;27;4109;-66
2022/12/27 10:23:51;;;;;;;;;;;;;;;20.12;46.06;101662.22;5080689;28;4096;-65
2022/12/27 10:26:18;;;;;;;;;;;;;;;20.13;46.01;101669.44;5079933;28;4178;-65
2022/12/27 10:28:45;;;;;;;;;;;;;;;20.15;46.13;101660.94;5074421;28;4192;-65
2022/12/27 10:31:15;;;;;;;;;;;;;;;20.18;46.14;101659.66;5079023;28;5329;-66
2022/12/27 10:33:42;;;;;;;;;;;;;;;20.18;46.39;101674.06;5064577;28;4138;-65
2022/12/27 10:36:10;;;;;;;;;;;;;;;20.19;46.34;101669.81;5076061;28;4374;-65
2022/12/27 10:38:36;;;;;;;;;;;;;;;20.23;46.45;101676.56;5092438;28;4094;-65
2022/12/27 10:41:06;;;;;;;;;;;;;;;20.05;46.74;101687.72;5087601;28;4187;-66
2022/12/27 10:43:35;;;;;;;;;;;;;;;20.21;46.72;101687.19;5098997;28;4064;-70
2022/12/27 10:46:19;;;;;;;;;;;;;;;20.25;47.24;101687.44;5092832;28;4137;-66
2022/12/27 10:48:56;;;;;;;;;;;;;;;20.37;47.27;101688.16;5093168;28;4187;-67
2022/12/27 10:51:44;;;;;;;;;;;;;;;20.34;47.32;101697.28;5088094;28;4101;-67
2022/12/27 10:54:12;;;;;;;;;;;;;;;20.28;47.50;101686.94;5098145;28;4114;-67
2022/12/27 10:56:40;;;;;;;;;;;;;;;20.31;47.61;101690.66;5098579;28;4022;-66
2022/12/27 10:59:12;;;;;;;;;;;;;;;20.31;47.53;101684.91;5095996;28;5223;-66
2022/12/27 11:01:38;;;;;;;;;;;;;;;20.29;47.78;101687.66;5100132;28;5207;-66
2022/12/27 11:04:16;;;;;;;;;;;;;;;20.41;47.62;101688.41;5090896;28;4255;-71
2022/12/27 11:06:47;;;;;;;;;;;;;;;20.61;47.81;101691.00;5096530;28;5264;-71
2022/12/27 11:09:27;;;;;;;;;;;;;;;20.68;47.90;101692.84;5095185;28;4298;-70
2022/12/27 11:12:15;;;;;;;;;;;;;;;20.76;47.99;101693.34;5096304;28;4216;-68
2022/12/27 11:14:54;;;;;;;;;;;;;;;20.80;48.17;101699.34;5101254;28;4083;-68
2022/12/27 11:17:22;;;;;;;;;;;;;;;20.67;48.04;101703.63;5098325;28;4106;-63
2022/12/27 11:19:49;;;;;;;;;;;;;;;20.57;48.35;101699.38;5096075;28;6363;-65
2022/12/27 11:22:21;;;;;;;;;;;;;;;20.46;48.24;101706.66;5098200;28;4159;-62
2022/12/27 11:24:49;;;;;;;;;;;;;;;20.00;46.26;101703.22;5091325;28;5250;-61
2022/12/27 11:27:24;;;;;;;;;;;;;;;19.90;45.45;101713.34;5093613;28;4338;-61
2022/12/27 11:29:51;;;;;;;;;;;;;;;20.14;46.22;101703.31;5094251;28;5269;-62
2022/12/27 11:32:18;;;;;;;;;;;;;;;20.28;46.90;101714.94;5082241;28;4123;-61
2022/12/27 11:34:45;;;;;;;;;;;;;;;20.35;46.74;101708.19;5078644;28;4250;-62
2022/12/27 11:37:14;;;;;;;;;;;;;;;20.40;47.01;101715.66;5082343;28;4347;-62
2022/12/27 11:39:44;;;;;;;;;;;;;;;20.44;47.57;101715.91;5078838;28;4191;-61
2022/12/27 11:42:31;;;;;;;;;;;;;;;20.46;48.29;101724.66;5081799;28;4182;-61
2022/12/27 11:45:16;;;;;;;;;;;;;;;20.47;48.13;101725.41;5083645;28;4141;-62
2022/12/27 11:47:51;;;;;;;;;;;;;;;20.47;47.99;101740.53;5081309;28;4142;-61
2022/12/27 11:50:26;;;;;;;;;;;;;;;20.48;47.96;101744.19;5082974;28;4119;-61
2022/12/27 11:53:04;;;;;;;;;;;;;;;20.46;48.02;101741.94;5083211;28;4194;-61
2022/12/27 11:55:50;;;;;;;;;;;;;;;20.46;48.32;101741.94;5080673;28;4118;-62
2022/12/27 11:58:22;;;;;;;;;;;;;;;20.44;47.98;101729.56;5080211;28;4162;-61
2022/12/27 12:00:52;;;;;;;;;;;;;;;20.45;48.00;101734.66;5077181;28;4213;-61
2022/12/27 12:03:30;;;;;;;;;;;;;;;20.46;48.25;101739.06;5078454;28;5214;-61
2022/12/27 12:06:15;;;;;;;;;;;;;;;20.45;48.16;101740.41;5078205;28;4188;-62
2022/12/27 12:08:58;;;;;;;;;;;;;;;20.47;48.38;101736.91;5086003;28;3996;-61
2022/12/27 12:11:28;;;;;;;;;;;;;;;20.47;48.38;101731.16;5076900;28;5277;-61
2022/12/27 12:14:03;;;;;;;;;;;;;;;20.47;48.75;101734.78;5079163;28;4004;-61
2022/12/27 12:16:32;;;;;;;;;;;;;;;20.48;48.44;101739.19;5081849;28;3998;-62
2022/12/27 12:19:02;;;;;;;;;;;;;;;20.51;48.48;101740.03;5077555;28;5290;-63
2022/12/27 12:21:39;;;;;;;;;;;;;;;20.51;48.57;101735.03;5081765;28;4209;-62
2022/12/27 12:24:24;;;;;;;;;;;;;;;20.50;48.81;101736.41;5080058;28;4127;-62
2022/12/27 12:26:53;;;;;;;;;;;;;;;20.51;48.90;101737.91;5083617;28;4174;-63
2022/12/27 12:29:24;;;;;;;;;;;;;;;20.53;48.97;101727.91;5084268;28;4121;-62
2022/12/27 12:32:09;;;;;;;;;;;;;;;20.53;49.17;101733.66;5082947;28;5391;-62
2022/12/27 12:34:40;;;;;;;;;;;;;;;20.56;49.19;101732.41;5081697;28;3933;-62
2022/12/27 12:37:12;;;;;;;;;;;;;;;20.56;49.60;101736.06;5083838;28;4315;-61
2022/12/27 12:39:49;;;;;;;;;;;;;;;20.56;50.18;101746.78;5078857;28;5261;-61
2022/12/27 12:42:19;;;;;;;;;;;;;;;20.38;49.83;101744.31;5077254;28;4165;-63
2022/12/27 12:44:58;;;;;;;;;;;;;;;20.54;49.52;101746.66;5059388;28;4248;-72
2022/12/27 12:47:29;;;;;;;;;;;;;;;20.70;49.98;101739.03;5073837;28;4135;-72
2022/12/27 12:49:58;;;;;;;;;;;;;;;20.76;49.74;101750.91;5068569;28;4055;-71
2022/12/27 12:52:28;;;;;;;;;;;;;;;20.71;49.74;101744.16;5079280;28;4708;-72
2022/12/27 12:55:12;;;;;;;;;;;;;;;20.62;49.69;101744.31;5082283;28;5625;-74
2022/12/27 12:58:00;;;;;;;;;;;;;;;20.78;50.71;101748.16;5077180;28;4283;-70
2022/12/27 13:00:35;;;;;;;;;;;;;;;20.81;50.84;101746.88;5079850;28;4290;-71
2022/12/27 13:03:24;;;;;;;;;;;;;;;20.79;50.98;101754.66;5073204;28;4227;-75
2022/12/27 13:05:52;;;;;;;;;;;;;;;20.76;50.83;101755.91;5079481;28;4191;-73
2022/12/27 13:08:48;;;;;;;;;;;;;;;20.78;50.66;101756.78;5063697;28;4126;-77
2022/12/27 13:11:17;;;;;;;;;;;;;;;20.80;51.13;101761.88;5028991;28;4122;-75
2022/12/27 13:13:59;;;;;;;;;;;;;;;20.81;51.30;101761.28;5081521;28;3996;-73
2022/12/27 13:16:29;;;;;;;;;;;;;;;20.82;51.31;101756.25;5070581;28;4924;-75
2022/12/27 13:19:29;;;;;;;;;;;;;;;20.86;51.22;101768.75;5074807;28;4159;-73
2022/12/27 13:22:06;;;;;;;;;;;;;;;20.87;51.41;101773.16;5077933;28;4110;-73
2022/12/27 13:24:44;;;;;;;;;;;;;;;20.87;51.38;101761.63;5073480;28;4133;-71
2022/12/27 13:27:40;;;;;;;;;;;;;;;20.88;51.37;101763.13;5077348;28;4121;-72
2022/12/27 13:30:12;;;;;;;;;;;;;;;20.88;51.41;101756.63;5063777;28;4236;-72
2022/12/27 13:32:57;;;;;;;;;;;;;;;20.89;51.84;101758.88;5079289;28;4130;-73
2022/12/27 13:35:27;;;;;;;;;;;;;;;20.87;51.01;101752.25;5078559;28;4405;-74
2022/12/27 13:38:02;;;;;;;;;;;;;;;20.93;51.08;101755.47;5080849;28;4190;-76
2022/12/27 13:40:47;;;;;;;;;;;;;;;20.93;51.84;101758.34;5075441;28;4146;-76
2022/12/27 13:43:33;;;;;;;;;;;;;;;20.95;51.68;101757.72;5081688;28;4304;-75
2022/12/27 13:46:24;;;;;;;;;;;;;;;20.97;51.98;101754.97;5081320;28;4113;-74
2022/12/27 13:48:55;;;;;;;;;;;;;;;21.07;51.50;101756.31;5067320;28;4118;-76
2022/12/27 13:51:44;;;;;;;;;;;;;;;21.21;51.89;101752.72;5070659;28;4162;-76
2022/12/27 13:54:23;;;;;;;;;;;;;;;21.30;51.29;101766.97;5073023;28;4039;-79
2022/12/27 13:56:52;;;;;;;;;;;;;;;21.40;51.70;101760.28;5067527;28;5333;-77
2022/12/27 13:59:25;;;;;;;;;;;;;;;21.34;51.67;101767.19;5069900;28;4146;-70
2022/12/27 14:01:57;;;;;;;;;;;;;;;21.31;51.62;101774.22;5073413;28;4428;-76
2022/12/27 14:04:42;;;;;;;;;;;;;;;21.30;52.33;101778.50;5075709;28;4130;-79
2022/12/27 14:07:18;;;;;;;;;;;;;;;21.24;52.56;101775.28;5066617;28;4249;-67
2022/12/27 14:09:54;;;;;;;;;;;;;;;21.22;52.82;101789.56;5060210;28;4218;-66
2022/12/27 14:12:39;;;;;;;;;;;;;;;21.24;52.62;101786.78;5070970;28;4085;-66
2022/12/27 14:15:06;;;;;;;;;;;;;;;21.22;52.79;101788.81;5079616;28;4194;-68
2022/12/27 14:17:38;;;;;;;;;;;;;;;21.22;52.81;101795.31;5074759;28;4477;-73
2022/12/27 14:20:07;;;;;;;;;;;;;;;21.19;52.82;101801.56;5076094;28;4373;-72
2022/12/27 14:22:39;;;;;;;;;;;;;;;20.84;53.04;101790.91;5072629;28;5178;-66
2022/12/27 14:25:28;;;;;;;;;;;;;;;20.91;52.27;101793.56;5054176;28;4119;-68
2022/12/27 14:28:02;;;;;;;;;;;;;;;21.02;51.81;101805.66;5088361;28;4222;-76
2022/12/27 14:30:45;;;;;;;;;;;;;;;21.11;52.08;101801.88;5076130;28;4157;-71
2022/12/27 14:33:30;;;;;;;;;;;;;;;21.06;52.03;101805.91;5077382;28;4171;-68
2022/12/27 14:36:20;;;;;;;;;;;;;;;21.04;52.10;101808.66;5074598;28;4160;-69
2022/12/27 14:39:00;;;;;;;;;;;;;;;21.02;51.86;101805.66;5080420;28;4154;-69
2022/12/27 14:41:45;;;;;;;;;;;;;;;21.01;51.77;101812.81;5057721;28;4084;-70
2022/12/27 14:44:19;;;;;;;;;;;;;;;20.99;51.70;101818.44;5073856;28;4121;-69